Time;durP1;ratioP1;P1;durP2;ratioP2;P2;SDS_P1;SDS_P2;PMS_P1;PMS_P2;Temp;Humidity;BMP_temperature;BMP_pressure;BME280_temperature;BME280_humidity;BME280_pressure;Samples;Min_cycle;Max_cycle;Signal;HPM_P1;HPM_P2
2021/12/02 00:00:19;;;;;;;11.05;7.43;;;6.70;99.90;;;;;;5030470;28;20143;-79
2021/12/02 00:03:07;;;;;;;10.90;6.95;;;6.80;99.90;;;;;;5053270;28;20038;-81
2021/12/02 00:05:34;;;;;;;9.95;5.95;;;6.80;99.90;;;;;;5026732;28;20127;-79
2021/12/02 00:08:00;;;;;;;12.63;6.30;;;6.80;99.90;;;;;;5043213;28;20108;-79
2021/12/02 00:10:30;;;;;;;9.93;6.68;;;6.90;99.90;;;;;;5042079;28;20044;-79
2021/12/02 00:12:57;;;;;;;11.07;7.10;;;6.90;99.90;;;;;;5045786;28;20362;-78
2021/12/02 00:15:29;;;;;;;13.52;6.82;;;6.90;99.90;;;;;;5026560;28;20045;-79
2021/12/02 00:18:29;;;;;;;12.90;6.78;;;7.00;99.90;;;;;;5043853;28;20460;-80
2021/12/02 00:21:05;;;;;;;9.55;6.05;;;7.00;99.90;;;;;;5046011;28;20060;-79
2021/12/02 00:23:54;;;;;;;9.57;6.15;;;7.00;99.90;;;;;;5043303;28;20080;-79
2021/12/02 00:26:22;;;;;;;7.50;4.63;;;7.10;99.90;;;;;;5048508;28;20362;-80
2021/12/02 00:28:53;;;;;;;7.97;5.15;;;7.10;99.90;;;;;;5028923;28;20045;-80
2021/12/02 00:31:22;;;;;;;7.53;4.93;;;7.10;99.90;;;;;;5009690;28;20394;-80
2021/12/02 00:33:52;;;;;;;;;;;7.20;99.90;;;;;;5025469;28;20041;-80
2021/12/02 00:36:21;;;;;;;7.75;5.22;;;7.20;99.90;;;;;;5045642;28;19921;-80
2021/12/02 00:38:48;;;;;;;8.13;4.57;;;7.20;99.90;;;;;;5060764;28;20677;-81
2021/12/02 00:41:16;;;;;;;6.97;4.20;;;7.30;99.90;;;;;;5044556;28;20033;-82
2021/12/02 00:43:44;;;;;;;8.68;4.95;;;7.30;99.90;;;;;;5044893;28;20047;-83
2021/12/02 00:46:13;;;;;;;6.38;4.45;;;7.30;99.90;;;;;;5021034;28;20056;-82
2021/12/02 00:48:41;;;;;;;7.25;4.20;;;7.30;99.90;;;;;;5044578;28;20041;-81
2021/12/02 00:51:08;;;;;;;6.55;4.20;;;7.30;99.90;;;;;;5041589;28;20069;-81
2021/12/02 00:53:40;;;;;;;7.05;3.70;;;7.30;99.90;;;;;;5027912;28;20040;-82
2021/12/02 00:56:07;;;;;;;5.88;3.60;;;7.30;99.90;;;;;;5038163;28;20164;-80
2021/12/02 00:58:33;;;;;;;6.95;4.55;;;7.30;99.90;;;;;;5042075;28;20585;-80
2021/12/02 01:01:00;;;;;;;6.80;3.88;;;7.30;99.90;;;;;;5045102;28;20587;-80
2021/12/02 01:03:32;;;;;;;5.80;4.15;;;7.30;99.90;;;;;;5076897;28;20051;-82
2021/12/02 01:05:59;;;;;;;6.55;4.28;;;7.30;99.90;;;;;;5060537;28;20063;-79
2021/12/02 01:08:27;;;;;;;7.57;4.20;;;7.30;99.90;;;;;;5075752;28;20063;-80
2021/12/02 01:10:54;;;;;;;7.40;4.13;;;7.20;99.90;;;;;;5034120;28;20067;-80
2021/12/02 01:13:21;;;;;;;8.65;4.45;;;7.20;99.90;;;;;;5077685;28;20291;-80
2021/12/02 01:15:48;;;;;;;7.95;4.45;;;7.20;99.90;;;;;;5046304;28;20467;-79
2021/12/02 01:18:14;;;;;;;5.93;3.80;;;7.20;99.90;;;;;;5068411;28;20400;-80
2021/12/02 01:20:44;;;;;;;6.50;4.30;;;7.20;99.90;;;;;;5054654;28;20183;-79
2021/12/02 01:23:11;;;;;;;8.57;4.95;;;7.20;99.90;;;;;;5071813;28;20504;-79
2021/12/02 01:25:39;;;;;;;10.48;4.88;;;7.20;99.90;;;;;;5054194;28;20052;-79
2021/12/02 01:28:05;;;;;;;6.57;4.00;;;7.20;99.90;;;;;;5079922;28;20028;-81
2021/12/02 01:30:32;;;;;;;6.15;4.20;;;7.20;99.90;;;;;;5065026;28;20036;-80
2021/12/02 01:33:06;;;;;;;6.47;4.32;;;7.10;99.90;;;;;;5045949;28;20036;-79
2021/12/02 01:35:34;;;;;;;7.60;3.78;;;7.10;99.90;;;;;;5061688;28;20072;-80
2021/12/02 01:38:01;;;;;;;6.60;4.07;;;7.10;99.90;;;;;;5046845;28;20049;-79
2021/12/02 01:40:29;;;;;;;6.00;3.80;;;7.10;99.90;;;;;;5062121;28;20116;-80
2021/12/02 01:42:58;;;;;;;5.07;3.45;;;7.10;99.90;;;;;;5045814;28;20032;-80
2021/12/02 01:45:27;;;;;;;4.07;2.65;;;7.00;99.90;;;;;;5062808;28;20098;-79
2021/12/02 01:47:57;;;;;;;4.32;2.60;;;7.00;99.90;;;;;;5050162;28;20058;-81
2021/12/02 01:50:26;;;;;;;4.43;3.08;;;7.00;99.90;;;;;;5058387;28;20073;-79
2021/12/02 01:52:58;;;;;;;4.00;3.10;;;7.00;99.90;;;;;;5032863;28;20044;-80
2021/12/02 01:55:26;;;;;;;9.00;3.63;;;7.00;99.90;;;;;;5083327;28;20181;-81
2021/12/02 01:58:00;;;;;;;8.38;4.25;;;7.00;99.90;;;;;;5046967;28;20031;-79
2021/12/02 02:00:42;;;;;;;5.90;3.33;;;7.00;99.90;;;;;;5057240;28;20040;-79
2021/12/02 02:03:09;;;;;;;4.15;2.33;;;7.00;99.90;;;;;;5037654;28;20794;-80
2021/12/02 02:05:36;;;;;;;3.47;1.90;;;6.90;99.90;;;;;;5010394;28;20049;-81
2021/12/02 02:08:23;;;;;;;3.95;1.95;;;6.70;99.90;;;;;;5058618;28;20033;-80
2021/12/02 02:10:50;;;;;;;5.55;1.83;;;6.60;99.90;;;;;;5028441;28;20114;-81
2021/12/02 02:13:19;;;;;;;3.78;1.50;;;6.50;99.90;;;;;;5063426;28;20437;-81
2021/12/02 02:15:49;;;;;;;2.53;1.52;;;6.40;99.90;;;;;;5029938;28;20037;-78
2021/12/02 02:18:22;;;;;;;4.90;1.23;;;6.30;99.90;;;;;;5039667;28;20037;-82
2021/12/02 02:21:09;;;;;;;3.25;1.00;;;6.20;99.90;;;;;;5030621;28;20029;-81
2021/12/02 02:23:39;;;;;;;3.47;1.30;;;6.10;99.90;;;;;;5041041;28;20215;-80
2021/12/02 02:26:08;;;;;;;1.95;0.90;;;6.00;99.90;;;;;;5027885;28;20052;-80
2021/12/02 02:28:34;;;;;;;2.63;0.90;;;5.90;99.90;;;;;;5011850;28;20060;-80
2021/12/02 02:31:01;;;;;;;3.05;1.17;;;5.80;99.90;;;;;;5030686;28;20040;-81
2021/12/02 02:33:35;;;;;;;2.25;1.08;;;5.80;99.90;;;;;;5062573;28;20433;-81
2021/12/02 02:36:01;;;;;;;3.28;0.90;;;5.70;99.40;;;;;;5043728;28;20055;-80
2021/12/02 02:38:28;;;;;;;3.33;0.98;;;5.70;99.50;;;;;;5058832;28;20105;-80
2021/12/02 02:40:56;;;;;;;1.25;1.08;;;5.60;99.10;;;;;;5028054;28;20063;-81
2021/12/02 02:43:25;;;;;;;2.03;0.80;;;5.60;98.60;;;;;;5045751;28;20049;-81
2021/12/02 02:45:51;;;;;;;2.88;1.08;;;5.50;99.00;;;;;;5058775;28;20113;-79
2021/12/02 02:48:17;;;;;;;3.30;0.90;;;5.50;98.70;;;;;;5026561;28;20044;-80
2021/12/02 02:50:43;;;;;;;2.85;1.20;;;5.50;98.40;;;;;;5041213;28;20063;-80
2021/12/02 02:53:18;;;;;;;6.38;1.15;;;5.50;98.70;;;;;;5027894;28;20074;-81
2021/12/02 02:56:10;;;;;;;4.40;1.40;;;5.50;98.80;;;;;;5045707;28;20052;-81
2021/12/02 03:02:42;;;;;;;3.22;0.95;;;5.50;97.40;;;;;;5093789;27;1381153;-80
2021/12/02 03:07:45;;;;;;;46.05;25.75;;;5.50;95.60;;;;;;5132705;27;20146;-80
2021/12/02 03:12:42;;;;;;;3.78;0.80;;;5.60;94.70;;;;;;5129141;27;20039;-80
2021/12/02 03:16:43;;;;;;;1.55;0.75;;;5.60;93.70;;;;;;5096507;27;20065;-79
2021/12/02 03:17:55;;;;;;;2.30;1.08;;;5.60;92.10;;;;;;5136220;27;20922;-79
2021/12/02 03:20:21;;;;;;;3.83;0.90;;;5.60;91.60;;;;;;5122447;27;20486;-79
2021/12/02 03:22:47;;;;;;;3.92;1.13;;;5.60;91.20;;;;;;5116563;27;20437;-79
2021/12/02 03:25:14;;;;;;;4.35;0.95;;;5.70;90.30;;;;;;5118258;27;20043;-80
2021/12/02 03:27:40;;;;;;;2.53;1.00;;;5.60;89.70;;;;;;5086076;27;20063;-80
2021/12/02 03:30:07;;;;;;;2.30;0.85;;;5.60;90.00;;;;;;5114470;27;20042;-79
2021/12/02 03:32:34;;;;;;;4.18;0.90;;;5.70;89.80;;;;;;5140328;27;20050;-81
2021/12/02 03:35:01;;;;;;;6.07;0.82;;;5.60;89.00;;;;;;5119988;27;20491;-80
2021/12/02 03:37:27;;;;;;;2.22;0.80;;;5.60;90.00;;;;;;5131647;27;20043;-79
2021/12/02 03:39:53;;;;;;;7.38;1.38;;;5.60;90.30;;;;;;5118173;27;20046;-79
2021/12/02 03:42:19;;;;;;;4.50;1.00;;;5.60;90.70;;;;;;5116787;27;20039;-80
2021/12/02 03:44:46;;;;;;;5.95;1.17;;;5.60;91.10;;;;;;5103480;27;20402;-80
2021/12/02 03:47:13;;;;;;;4.70;0.93;;;5.60;91.50;;;;;;5097236;27;20040;-81
2021/12/02 03:49:40;;;;;;;5.03;1.42;;;5.60;91.80;;;;;;5108995;27;20445;-81
2021/12/02 03:52:07;;;;;;;7.95;1.55;;;5.60;91.80;;;;;;5102684;27;20179;-80
2021/12/02 03:54:33;;;;;;;9.02;1.75;;;5.60;91.90;;;;;;5128171;27;20046;-80
2021/12/02 03:57:00;;;;;;;5.70;1.23;;;5.60;91.80;;;;;;5138985;27;20114;-80
2021/12/02 03:59:26;;;;;;;3.40;1.13;;;5.60;91.10;;;;;;5135992;27;20107;-80
2021/12/02 04:01:52;;;;;;;2.13;0.80;;;5.60;90.90;;;;;;5126139;27;20035;-78
2021/12/02 04:04:18;;;;;;;1.45;0.77;;;5.60;90.40;;;;;;5138609;27;20043;-79
2021/12/02 04:06:45;;;;;;;5.93;0.68;;;5.60;89.70;;;;;;5136545;27;20152;-80
2021/12/02 04:16:38;;;;;;;3.25;1.08;;;5.50;88.10;;;;;;5116871;27;20054;-80
2021/12/02 04:19:06;;;;;;;3.88;1.23;;;5.50;88.50;;;;;;5099680;27;20035;-81
2021/12/02 04:21:33;;;;;;;6.55;1.45;;;5.50;88.10;;;;;;5121090;27;20035;-80
2021/12/02 04:24:00;;;;;;;5.47;1.35;;;5.50;88.20;;;;;;5113176;27;20036;-81
2021/12/02 04:26:26;;;;;;;3.03;0.95;;;5.50;87.60;;;;;;5113557;27;20039;-80
2021/12/02 04:28:52;;;;;;;4.40;1.08;;;5.50;87.70;;;;;;5120470;27;20491;-80
2021/12/02 04:31:18;;;;;;;3.30;1.10;;;5.50;87.60;;;;;;5086950;27;20044;-81
2021/12/02 04:33:45;;;;;;;1.25;0.90;;;5.50;86.90;;;;;;5119416;27;20032;-81
2021/12/02 04:36:13;;;;;;;;;;;5.50;86.40;;;;;;5122457;27;20091;-80
2021/12/02 04:38:40;;;;;;;4.47;0.95;;;5.50;84.70;;;;;;5117211;27;19976;-81
2021/12/02 04:41:06;;;;;;;4.10;0.88;;;5.50;85.00;;;;;;5107060;27;20058;-81
2021/12/02 04:43:32;;;;;;;1.55;0.60;;;5.50;83.00;;;;;;5099551;27;20058;-80
2021/12/02 04:45:59;;;;;;;3.15;0.77;;;5.50;82.90;;;;;;5099308;27;20051;-81
2021/12/02 04:48:25;;;;;;;4.68;0.98;;;5.50;83.30;;;;;;5083509;27;20542;-79
2021/12/02 04:50:52;;;;;;;2.95;0.73;;;5.40;82.30;;;;;;5117266;27;20046;-80
2021/12/02 04:53:19;;;;;;;2.70;0.75;;;5.40;81.90;;;;;;5083027;27;20047;-80
2021/12/02 04:55:45;;;;;;;6.07;0.85;;;5.40;82.60;;;;;;5088924;27;20070;-80
2021/12/02 04:58:11;;;;;;;3.60;0.60;;;5.40;82.00;;;;;;5115525;27;20043;-81
2021/12/02 05:00:38;;;;;;;2.58;0.60;;;5.40;81.00;;;;;;5126501;27;20375;-80
2021/12/02 05:03:04;;;;;;;1.75;0.68;;;5.40;80.60;;;;;;5099340;27;20737;-80
2021/12/02 05:05:32;;;;;;;6.75;1.08;;;5.40;80.40;;;;;;5115422;27;20047;-79
2021/12/02 05:08:00;;;;;;;2.42;0.73;;;5.40;80.10;;;;;;5108376;27;20039;-80
2021/12/02 05:10:27;;;;;;;4.32;0.80;;;5.40;80.20;;;;;;5114462;27;20045;-80
2021/12/02 05:12:53;;;;;;;2.72;0.73;;;5.40;79.30;;;;;;5123252;27;20055;-80
2021/12/02 05:15:20;;;;;;;3.90;1.05;;;5.40;78.60;;;;;;5111998;27;20519;-80
2021/12/02 05:17:46;;;;;;;1.55;0.60;;;5.40;77.00;;;;;;5113173;27;20111;-80
2021/12/02 05:20:12;;;;;;;3.22;0.77;;;5.40;75.50;;;;;;5131063;27;20037;-79
2021/12/02 05:22:39;;;;;;;1.73;0.55;;;5.40;75.30;;;;;;5123429;27;20043;-81
2021/12/02 05:25:05;;;;;;;3.63;0.70;;;5.40;75.10;;;;;;5119283;27;20031;-79
2021/12/02 05:27:32;;;;;;;2.83;0.60;;;5.40;73.70;;;;;;5122159;27;20064;-80
2021/12/02 05:29:58;;;;;;;3.10;0.73;;;5.40;73.90;;;;;;5135196;27;20046;-81
2021/12/02 05:32:24;;;;;;;2.15;0.50;;;5.40;74.50;;;;;;5096830;27;20170;-79
2021/12/02 05:34:51;;;;;;;1.75;0.43;;;5.40;73.30;;;;;;5104222;27;20063;-80
2021/12/02 05:37:17;;;;;;;1.10;0.50;;;5.40;73.90;;;;;;5099332;27;20037;-79
2021/12/02 05:39:44;;;;;;;2.03;0.47;;;5.40;73.40;;;;;;5127618;27;20052;-79
2021/12/02 05:42:10;;;;;;;3.80;0.75;;;5.30;74.10;;;;;;5123601;27;20027;-80
2021/12/02 05:44:36;;;;;;;4.05;0.63;;;5.30;74.60;;;;;;5135216;27;20054;-80
2021/12/02 05:47:03;;;;;;;7.28;0.85;;;5.30;75.70;;;;;;5089979;27;20420;-81
2021/12/02 05:49:29;;;;;;;3.00;0.93;;;5.20;76.30;;;;;;5118229;27;20067;-81
2021/12/02 05:51:55;;;;;;;6.70;0.82;;;5.20;75.20;;;;;;5133821;27;20159;-81
2021/12/02 05:54:21;;;;;;;3.35;0.50;;;5.10;74.50;;;;;;5106276;27;20054;-81
2021/12/02 05:56:47;;;;;;;1.90;0.70;;;5.10;72.80;;;;;;5106747;27;20068;-82
2021/12/02 05:59:13;;;;;;;6.57;0.95;;;5.00;72.40;;;;;;5101961;27;20138;-81
2021/12/02 06:01:42;;;;;;;4.20;0.57;;;5.00;73.10;;;;;;5118099;27;20039;-82
2021/12/02 06:04:10;;;;;;;4.75;0.90;;;4.90;74.20;;;;;;5113698;27;20121;-81
2021/12/02 06:06:36;;;;;;;1.50;0.57;;;4.80;74.00;;;;;;5138824;27;20134;-81
2021/12/02 06:09:05;;;;;;;2.47;0.93;;;4.80;74.80;;;;;;5118991;27;20027;-81
2021/12/02 06:11:31;;;;;;;1.60;0.80;;;4.80;75.50;;;;;;5135434;27;20123;-81
2021/12/02 06:13:58;;;;;;;3.90;0.90;;;4.70;75.90;;;;;;5120232;27;20039;-82
2021/12/02 06:16:24;;;;;;;1.92;1.10;;;4.70;75.70;;;;;;5123904;27;20046;-82
2021/12/02 06:18:50;;;;;;;3.58;1.30;;;4.70;76.00;;;;;;5106219;27;20108;-79
2021/12/02 06:21:16;;;;;;;1.95;1.10;;;4.60;76.90;;;;;;5142981;27;20042;-80
2021/12/02 06:23:43;;;;;;;2.95;0.98;;;4.60;77.20;;;;;;5121829;27;20072;-81
2021/12/02 06:26:10;;;;;;;1.38;0.80;;;4.60;77.90;;;;;;5117715;27;20173;-83
2021/12/02 06:28:37;;;;;;;3.88;0.73;;;4.60;78.50;;;;;;5118192;27;20043;-82
2021/12/02 06:31:03;;;;;;;3.40;1.27;;;4.50;78.90;;;;;;5104057;27;20046;-84
2021/12/02 06:33:30;;;;;;;2.92;0.80;;;4.50;79.30;;;;;;5130654;27;20191;-82
2021/12/02 06:35:57;;;;;;;6.57;1.17;;;4.50;80.00;;;;;;5122661;27;20041;-82
2021/12/02 06:38:23;;;;;;;7.35;1.40;;;4.40;80.20;;;;;;5113299;27;20041;-81
2021/12/02 06:40:49;;;;;;;6.25;1.05;;;4.40;80.40;;;;;;5118321;27;20039;-82
2021/12/02 06:43:16;;;;;;;4.13;1.10;;;4.40;81.10;;;;;;5124958;27;20039;-83
2021/12/02 06:45:43;;;;;;;3.50;1.00;;;4.40;81.00;;;;;;5131692;27;20023;-81
2021/12/02 06:48:09;;;;;;;7.10;1.40;;;4.40;80.70;;;;;;5144023;27;20039;-81
2021/12/02 06:50:37;;;;;;;7.15;2.00;;;4.40;80.50;;;;;;5123571;27;20491;-83
2021/12/02 06:53:04;;;;;;;3.60;0.60;;;4.30;78.30;;;;;;5107638;27;20355;-85
2021/12/02 06:55:31;;;;;;;10.20;1.70;;;4.40;76.10;;;;;;5101926;27;20046;-83
2021/12/02 06:57:57;;;;;;;4.43;0.70;;;4.30;75.50;;;;;;5078530;27;20927;-80
2021/12/02 07:00:24;;;;;;;10.02;1.50;;;4.30;75.30;;;;;;5138237;27;20039;-81
2021/12/02 07:02:52;;;;;;;3.47;1.15;;;4.40;75.20;;;;;;5119609;27;20503;-82
2021/12/02 07:05:19;;;;;;;2.35;1.20;;;4.30;75.50;;;;;;5089518;27;20047;-83
2021/12/02 07:07:46;;;;;;;3.67;1.00;;;4.30;75.80;;;;;;5117241;27;20641;-82
2021/12/02 07:10:20;;;;;;;4.80;0.90;;;4.30;75.60;;;;;;5133629;27;20459;-84
2021/12/02 07:12:50;;;;;;;2.95;0.90;;;4.30;75.90;;;;;;5108673;27;20034;-83
2021/12/02 07:15:18;;;;;;;3.70;0.98;;;4.30;75.90;;;;;;5117642;27;20032;-83
2021/12/02 07:17:47;;;;;;;2.40;0.87;;;4.30;76.10;;;;;;5131257;27;20073;-82
2021/12/02 07:20:14;;;;;;;2.03;1.00;;;4.30;76.40;;;;;;5118711;28;20040;-82
2021/12/02 07:22:40;;;;;;;11.35;1.67;;;4.30;77.00;;;;;;5132978;27;20130;-84
2021/12/02 07:25:07;;;;;;;8.43;1.35;;;4.30;76.20;;;;;;5117427;28;20506;-81
2021/12/02 07:27:34;;;;;;;7.53;1.80;;;4.30;76.90;;;;;;5103737;27;20078;-84
2021/12/02 07:30:00;;;;;;;3.83;1.00;;;4.30;76.90;;;;;;5120030;27;20188;-82
2021/12/02 07:32:33;;;;;;;6.88;1.30;;;4.30;77.00;;;;;;5105107;27;20031;-83
2021/12/02 07:35:02;;;;;;;4.18;1.15;;;4.30;77.40;;;;;;5130013;27;20512;-82
2021/12/02 07:37:29;;;;;;;7.20;1.40;;;4.30;78.20;;;;;;5118606;27;20027;-85
2021/12/02 07:39:56;;;;;;;5.78;1.20;;;4.30;78.60;;;;;;5101960;27;20030;-81
2021/12/02 07:42:23;;;;;;;6.55;1.60;;;4.30;79.30;;;;;;5132012;27;20039;-81
2021/12/02 07:44:49;;;;;;;2.97;1.15;;;4.30;80.00;;;;;;5104271;27;20042;-81
2021/12/02 07:47:15;;;;;;;8.50;1.55;;;4.30;80.50;;;;;;5105069;27;20042;-82
2021/12/02 07:49:43;;;;;;;3.25;1.00;;;4.20;80.90;;;;;;5105214;27;20031;-80
2021/12/02 07:52:10;;;;;;;4.82;1.35;;;4.20;81.20;;;;;;5088202;27;20058;-82
2021/12/02 07:54:41;;;;;;;6.97;2.28;;;4.20;81.20;;;;;;5122093;27;20039;-84
2021/12/02 07:57:10;;;;;;;8.90;1.50;;;4.20;81.20;;;;;;5122892;27;20035;-81
2021/12/02 07:59:38;;;;;;;3.70;1.13;;;4.20;80.90;;;;;;5117651;27;20869;-81
2021/12/02 08:02:04;;;;;;;6.17;1.60;;;4.20;80.10;;;;;;5139159;27;20716;-83
2021/12/02 08:04:30;;;;;;;2.72;0.93;;;4.10;80.30;;;;;;5108156;27;20698;-82
2021/12/02 08:06:56;;;;;;;7.60;1.13;;;4.20;79.60;;;;;;5071569;27;20031;-83
2021/12/02 08:09:23;;;;;;;10.80;1.52;;;4.20;79.90;;;;;;5093671;27;20490;-83
2021/12/02 08:11:49;;;;;;;3.42;1.35;;;4.20;80.20;;;;;;5084493;27;20055;-83
2021/12/02 08:14:17;;;;;;;11.77;2.30;;;4.10;80.40;;;;;;5102035;27;20031;-81
2021/12/02 08:16:44;;;;;;;3.15;1.13;;;4.10;80.30;;;;;;5114151;27;20038;-83
2021/12/02 08:19:11;;;;;;;10.73;2.40;;;4.10;80.50;;;;;;5112974;27;20130;-82
2021/12/02 08:21:37;;;;;;;6.72;1.65;;;4.10;80.60;;;;;;5072390;27;20043;-82
2021/12/02 08:24:04;;;;;;;7.90;1.40;;;4.10;80.50;;;;;;5089467;28;20058;-82
2021/12/02 08:26:32;;;;;;;5.70;1.88;;;4.10;80.80;;;;;;5122035;27;20031;-82
2021/12/02 08:28:58;;;;;;;5.00;1.38;;;4.10;80.70;;;;;;5093968;27;20042;-81
2021/12/02 08:31:24;;;;;;;14.98;2.08;;;4.10;80.70;;;;;;5083305;28;20130;-82
2021/12/02 08:33:52;;;;;;;6.03;1.73;;;4.10;81.00;;;;;;5092943;27;20464;-82
2021/12/02 08:36:23;;;;;;;9.98;1.77;;;4.10;80.90;;;;;;5081036;27;20225;-82
2021/12/02 08:38:49;;;;;;;5.40;1.10;;;4.10;80.60;;;;;;5116432;27;20432;-82
2021/12/02 08:41:20;;;;;;;6.25;1.38;;;4.10;80.40;;;;;;5092516;27;20044;-82
2021/12/02 08:43:47;;;;;;;7.95;1.98;;;4.10;80.20;;;;;;5109879;27;20162;-82
2021/12/02 08:46:14;;;;;;;6.93;1.85;;;4.10;80.40;;;;;;5118924;27;20039;-83
2021/12/02 08:48:41;;;;;;;9.98;2.20;;;4.10;80.50;;;;;;5113913;27;20090;-83
2021/12/02 08:51:07;;;;;;;3.67;1.70;;;4.10;80.10;;;;;;5096383;27;20087;-83
2021/12/02 08:53:33;;;;;;;6.60;1.50;;;4.10;80.50;;;;;;5095667;27;20080;-82
2021/12/02 08:55:59;;;;;;;3.88;1.05;;;4.10;80.20;;;;;;5122725;27;20043;-83
2021/12/02 08:58:25;;;;;;;11.02;1.70;;;4.10;79.00;;;;;;5106680;27;20043;-82
2021/12/02 09:00:51;;;;;;;4.40;1.38;;;4.10;78.70;;;;;;5114365;27;20057;-81
2021/12/02 09:03:18;;;;;;;4.80;1.17;;;4.10;78.60;;;;;;5111785;27;20054;-81
2021/12/02 09:05:44;;;;;;;3.40;1.00;;;4.10;78.50;;;;;;5098491;27;20039;-83
2021/12/02 09:08:10;;;;;;;6.22;1.10;;;4.10;77.20;;;;;;5092434;27;20271;-83
2021/12/02 09:10:37;;;;;;;4.57;1.17;;;4.10;76.80;;;;;;5094666;27;20035;-85
2021/12/02 09:13:07;;;;;;;8.32;1.27;;;4.10;76.40;;;;;;5106705;27;20503;-83
2021/12/02 09:15:36;;;;;;;2.00;0.82;;;4.10;78.10;;;;;;5115034;27;20039;-82
2021/12/02 09:18:02;;;;;;;6.40;1.00;;;4.20;75.20;;;;;;5113112;27;20050;-81
2021/12/02 09:20:28;;;;;;;1.98;1.15;;;4.20;74.70;;;;;;5077900;27;20039;-81
2021/12/02 09:22:55;;;;;;;4.20;1.20;;;4.20;75.30;;;;;;5092162;27;20047;-82
2021/12/02 09:25:22;;;;;;;4.45;1.35;;;4.20;75.30;;;;;;5109861;27;20037;-82
2021/12/02 09:27:48;;;;;;;3.75;1.25;;;4.20;75.00;;;;;;5089939;27;20518;-81
2021/12/02 09:30:16;;;;;;;2.45;1.20;;;4.20;74.30;;;;;;5112436;27;20110;-82
2021/12/02 09:32:43;;;;;;;5.25;1.00;;;4.20;74.90;;;;;;5112910;27;20035;-82
2021/12/02 09:35:10;;;;;;;8.43;1.25;;;4.20;74.40;;;;;;5090447;27;20127;-79
2021/12/02 09:37:36;;;;;;;3.03;1.38;;;4.20;75.20;;;;;;5129021;27;20531;-80
2021/12/02 09:40:06;;;;;;;4.03;1.27;;;4.20;75.10;;;;;;5110869;27;20706;-83
2021/12/02 09:42:32;;;;;;;3.67;1.35;;;4.20;75.30;;;;;;5095789;27;20123;-82
2021/12/02 09:45:01;;;;;;;7.10;2.63;;;4.20;75.80;;;;;;5113699;27;20058;-83
2021/12/02 09:47:33;;;;;;;3.92;1.30;;;4.20;76.90;;;;;;5082854;27;20036;-83
2021/12/02 09:50:06;;;;;;;9.52;1.88;;;4.20;77.20;;;;;;5109989;27;20048;-79
2021/12/02 09:52:38;;;;;;;7.10;2.55;;;4.20;76.60;;;;;;5113449;27;20062;-79
2021/12/02 09:57:58;;;;;;;4.10;1.23;;;4.10;76.00;;;;;;5078788;27;20073;-81
2021/12/02 10:00:41;;;;;;;2.33;1.05;;;4.10;75.90;;;;;;5089980;27;20038;-80
2021/12/02 10:03:31;;;;;;;4.13;1.20;;;4.10;75.00;;;;;;5099805;27;20050;-80
2021/12/02 10:05:59;;;;;;;3.28;1.13;;;4.10;74.90;;;;;;5096730;27;20042;-80
2021/12/02 10:08:33;;;;;;;4.45;1.20;;;4.10;75.00;;;;;;5085254;27;20054;-81
2021/12/02 10:11:05;;;;;;;4.35;1.25;;;4.10;73.90;;;;;;5093779;27;20055;-80
2021/12/02 10:13:49;;;;;;;4.35;1.05;;;4.00;73.90;;;;;;5109591;27;20051;-80
2021/12/02 10:16:25;;;;;;;2.50;0.98;;;4.00;73.50;;;;;;5114946;27;20117;-80
2021/12/02 10:18:56;;;;;;;3.90;1.05;;;4.10;73.60;;;;;;5108387;27;20040;-80
2021/12/02 10:21:29;;;;;;;2.13;0.95;;;4.00;73.20;;;;;;5111337;27;20043;-78
2021/12/02 10:24:08;;;;;;;3.47;1.10;;;4.00;73.90;;;;;;5110430;27;20039;-78
2021/12/02 10:26:36;;;;;;;3.10;1.20;;;4.00;73.10;;;;;;5126352;27;20023;-78
2021/12/02 10:29:06;;;;;;;;;;;4.00;72.90;;;;;;5095123;28;20035;-78
2021/12/02 10:31:33;;;;;;;2.35;0.80;;;4.00;73.30;;;;;;5105588;27;19922;-77
2021/12/02 10:34:03;;;;;;;1.73;0.93;;;3.90;73.20;;;;;;5105977;27;20158;-78
2021/12/02 10:36:31;;;;;;;2.38;1.08;;;3.90;72.70;;;;;;5116126;27;20040;-79
2021/12/02 10:39:08;;;;;;;3.63;1.30;;;3.90;72.30;;;;;;5115992;27;20038;-78
2021/12/02 10:41:35;;;;;;;3.05;1.05;;;3.90;72.80;;;;;;5115290;27;20036;-78
2021/12/02 10:44:16;;;;;;;7.00;1.10;;;4.00;73.20;;;;;;5084522;27;20039;-79
2021/12/02 10:47:13;;;;;;;3.45;1.05;;;4.00;72.60;;;;;;5113241;27;20475;-79
2021/12/02 10:49:49;;;;;;;12.38;1.58;;;4.00;72.90;;;;;;5098310;27;20051;-76
2021/12/02 10:52:20;;;;;;;3.78;1.05;;;4.00;72.90;;;;;;5099378;27;20087;-78
2021/12/02 10:54:51;;;;;;;5.10;1.00;;;4.00;72.60;;;;;;5080403;27;20114;-77
2021/12/02 10:57:24;;;;;;;5.53;1.17;;;3.90;72.10;;;;;;5105080;27;20499;-77
2021/12/02 11:00:03;;;;;;;2.50;1.00;;;3.90;73.70;;;;;;5097687;28;20049;-77
2021/12/02 11:02:30;;;;;;;6.18;1.10;;;3.90;72.70;;;;;;5076795;28;20073;-77
2021/12/02 11:05:22;;;;;;;2.08;1.00;;;3.90;72.70;;;;;;5092701;28;20031;-77
2021/12/02 11:08:03;;;;;;;2.78;1.10;;;3.80;74.10;;;;;;5108169;28;20055;-77
2021/12/02 11:10:50;;;;;;;9.55;1.20;;;3.80;72.90;;;;;;5113744;27;20042;-77
2021/12/02 11:13:23;;;;;;;3.45;1.30;;;3.80;73.80;;;;;;5117344;27;20048;-78
2021/12/02 11:15:50;;;;;;;2.30;1.05;;;3.80;74.10;;;;;;5113617;27;20039;-77
2021/12/02 11:18:16;;;;;;;4.35;1.17;;;3.80;74.20;;;;;;5114027;28;20032;-77
2021/12/02 11:20:50;;;;;;;3.80;1.00;;;3.70;74.60;;;;;;5118102;27;20070;-77
2021/12/02 11:23:20;;;;;;;3.05;0.82;;;3.70;75.00;;;;;;5094305;27;20305;-77
2021/12/02 11:25:49;;;;;;;8.27;1.35;;;3.70;73.80;;;;;;5115086;27;20404;-77
2021/12/02 11:28:16;;;;;;;3.55;0.82;;;3.70;73.90;;;;;;5111690;27;20040;-77
2021/12/02 11:30:42;;;;;;;2.08;0.85;;;3.70;73.50;;;;;;5106308;28;20032;-77
2021/12/02 11:33:10;;;;;;;9.20;1.35;;;3.60;72.90;;;;;;5121492;27;20521;-78
2021/12/02 11:35:37;;;;;;;2.65;0.90;;;3.60;72.70;;;;;;5109149;27;20596;-78
2021/12/02 11:38:06;;;;;;;2.80;0.80;;;3.60;73.80;;;;;;5125223;27;20031;-78
2021/12/02 11:40:36;;;;;;;3.03;1.00;;;3.60;73.90;;;;;;5107713;27;20035;-77
2021/12/02 11:43:02;;;;;;;3.03;1.13;;;3.60;73.30;;;;;;5126358;27;20044;-76
2021/12/02 11:45:31;;;;;;;3.50;1.38;;;3.50;73.10;;;;;;5120370;27;20037;-77
2021/12/02 11:47:58;;;;;;;5.78;1.10;;;3.50;73.20;;;;;;5112584;27;20039;-77
2021/12/02 11:50:27;;;;;;;3.05;0.70;;;3.50;73.00;;;;;;5113937;27;20560;-76
2021/12/02 11:52:54;;;;;;;4.85;1.40;;;3.50;72.90;;;;;;5094157;27;20395;-77
2021/12/02 11:55:31;;;;;;;2.60;0.77;;;3.50;73.10;;;;;;5085294;27;20104;-77
2021/12/02 11:57:58;;;;;;;2.92;1.38;;;3.50;73.30;;;;;;5113788;27;20054;-77
2021/12/02 12:00:27;;;;;;;2.13;1.10;;;3.50;73.40;;;;;;5096989;28;20043;-77
2021/12/02 12:02:56;;;;;;;2.97;0.98;;;3.50;73.70;;;;;;5119671;27;20511;-78
2021/12/02 12:05:29;;;;;;;4.78;1.17;;;3.50;74.10;;;;;;5122109;27;20027;-77
2021/12/02 12:07:56;;;;;;;3.95;1.10;;;3.50;74.80;;;;;;5114070;27;20388;-78
2021/12/02 12:10:32;;;;;;;4.72;0.82;;;3.50;74.40;;;;;;5113495;27;20446;-77
2021/12/02 12:13:20;;;;;;;1.52;0.70;;;3.50;75.00;;;;;;5114491;27;20047;-78
2021/12/02 12:15:55;;;;;;;3.15;0.98;;;3.50;75.40;;;;;;5111668;27;20399;-78
2021/12/02 12:18:39;;;;;;;7.75;3.75;;;3.50;75.00;;;;;;5119240;27;20677;-76
2021/12/02 12:21:07;;;;;;;3.17;1.00;;;3.40;75.40;;;;;;5116424;27;20047;-77
2021/12/02 12:23:38;;;;;;;4.13;2.10;;;3.50;75.70;;;;;;5123717;27;20037;-79
2021/12/02 12:26:09;;;;;;;4.22;1.10;;;3.40;75.80;;;;;;5142322;27;20498;-78
2021/12/02 12:29:07;;;;;;;5.35;1.63;;;3.40;76.10;;;;;;5125528;27;20383;-78
2021/12/02 12:32:07;;;;;;;5.05;1.42;;;3.40;76.40;;;;;;5128169;27;20459;-78
2021/12/02 12:37:21;;;;;;;4.03;0.90;;;3.50;76.30;;;;;;5137646;27;20119;-77
2021/12/02 12:40:09;;;;;;;3.90;1.10;;;3.50;76.30;;;;;;5141500;27;20039;-77
2021/12/02 12:42:37;;;;;;;3.65;1.55;;;3.50;76.20;;;;;;5119052;27;20043;-78
2021/12/02 12:45:06;;;;;;;3.55;0.98;;;3.50;76.20;;;;;;5127117;27;20130;-81
2021/12/02 12:47:54;;;;;;;4.85;1.05;;;3.50;76.60;;;;;;5104791;27;20134;-80
2021/12/02 12:50:34;;;;;;;1.77;0.95;;;3.50;75.80;;;;;;5107168;27;20053;-80
2021/12/02 12:53:07;;;;;;;5.22;1.52;;;3.50;75.90;;;;;;5139436;27;20110;-81
2021/12/02 12:55:40;;;;;;;5.15;1.30;;;3.50;76.00;;;;;;5100605;27;20038;-84
2021/12/02 12:58:10;;;;;;;2.05;0.93;;;3.50;76.10;;;;;;5122002;27;20158;-80
2021/12/02 13:00:42;;;;;;;3.35;0.95;;;3.50;76.00;;;;;;5117923;27;20039;-81
2021/12/02 13:03:22;;;;;;;3.35;1.10;;;3.60;76.40;;;;;;5116272;27;20046;-81
2021/12/02 13:05:56;;;;;;;2.13;0.90;;;3.50;76.10;;;;;;5133618;27;20256;-82
2021/12/02 13:08:30;;;;;;;2.38;0.95;;;3.50;76.50;;;;;;5123643;27;20042;-83
2021/12/02 13:11:03;;;;;;;4.93;1.45;;;3.50;76.90;;;;;;5117104;27;20047;-82
2021/12/02 13:13:32;;;;;;;7.03;2.50;;;3.50;77.30;;;;;;5132723;27;20043;-82
2021/12/02 13:16:15;;;;;;;3.05;1.30;;;3.50;77.70;;;;;;5117753;27;20051;-84
2021/12/02 13:18:43;;;;;;;2.95;0.88;;;3.50;77.60;;;;;;5098416;27;20036;-82
2021/12/02 13:21:28;;;;;;;3.65;1.48;;;3.50;77.70;;;;;;5118509;27;20572;-84
2021/12/02 13:23:57;;;;;;;5.20;1.98;;;3.50;78.20;;;;;;5144238;27;20071;-82
2021/12/02 13:26:31;;;;;;;;;;;3.50;78.40;;;;;;5121235;27;20046;-82
2021/12/02 13:29:22;;;;;;;2.95;1.50;;;3.50;78.60;;;;;;5138837;27;19926;-84
2021/12/02 13:31:54;;;;;;;6.63;1.90;;;3.50;79.10;;;;;;5098701;27;20035;-83